Time;durP1;ratioP1;P1;durP2;ratioP2;P2;SDS_P1;SDS_P2;PMS_P1;PMS_P2;Temp;Humidity;BMP_temperature;BMP_pressure;BME280_temperature;BME280_humidity;BME280_pressure;Samples;Min_cycle;Max_cycle;Signal;HPM_P1;HPM_P2
2022/12/08 00:00:07;;;;;;;13.03;6.90;;;;;;;5.37;nan;-23966.50;5031940;28;20251;-72
2022/12/08 00:02:32;;;;;;;11.57;6.47;;;;;;;5.44;nan;-23968.63;5031442;28;20686;-75
2022/12/08 00:10:25;;;;;;;13.90;7.73;;;;;;;5.13;nan;-23959.81;5031376;28;20546;-75
2022/12/08 00:12:51;;;;;;;16.00;8.47;;;;;;;5.13;nan;-23959.97;5030161;28;20807;-76
2022/12/08 00:15:16;;;;;;;18.43;7.87;;;;;;;;;;5031520;28;20159;-75
2022/12/08 00:17:42;;;;;;;17.23;6.97;;;;;;;5.79;nan;-23978.44;5031343;28;20190;-74
2022/12/08 00:20:08;;;;;;;18.30;7.10;;;;;;;5.51;nan;-23970.47;5031032;28;20176;-74
2022/12/08 00:22:33;;;;;;;14.20;7.50;;;;;;;5.87;nan;-23980.59;5031213;28;20187;-74
2022/12/08 00:24:58;;;;;;;15.20;7.10;;;;;;;5.87;nan;-23980.72;5031368;28;20206;-75
2022/12/08 00:27:24;;;;;;;20.27;8.67;;;;;;;5.61;nan;-23973.34;5031250;28;20257;-75
2022/12/08 00:29:49;;;;;;;19.77;8.70;;;;;;;5.60;nan;-23973.19;5031433;28;20182;-74
2022/12/08 00:32:15;;;;;;;15.87;7.63;;;;;;;5.63;nan;-23973.91;5031010;28;20540;-74
2022/12/08 00:34:40;;;;;;;17.90;7.67;;;;;;;6.07;nan;-23986.25;5031262;28;20183;-74
2022/12/08 00:37:05;;;;;;;13.83;6.97;;;;;;;5.77;nan;-23977.88;5030946;28;20167;-73
2022/12/08 00:39:31;;;;;;;13.53;7.10;;;;;;;6.01;nan;-23984.69;5029628;28;20563;-74
2022/12/08 00:42:12;;;;;;;13.40;6.87;;;;;;;6.15;nan;-23988.53;5031355;28;20175;-74
2022/12/08 00:44:38;;;;;;;18.20;7.50;;;;;;;5.22;nan;-23962.38;5030797;28;20628;-73
2022/12/08 00:47:04;;;;;;;12.03;7.30;;;;;;;6.20;nan;-23990.09;5035223;28;20171;-74
2022/12/08 00:49:29;;;;;;;14.87;6.87;;;;;;;5.93;nan;-23982.44;5034916;28;20674;-74
2022/12/08 00:51:55;;;;;;;17.30;8.10;;;;;;;6.03;nan;-23985.28;5034336;28;20824;-74
2022/12/08 00:54:24;;;;;;;16.73;8.07;;;;;;;5.99;nan;-23984.00;5035130;28;20195;-75
2022/12/08 00:56:50;;;;;;;15.17;6.93;;;;;;;6.06;nan;-23986.13;5034932;28;20171;-76
2022/12/08 00:59:15;;;;;;;14.17;8.07;;;;;;;6.13;nan;-23988.13;5034451;28;20175;-76
2022/12/08 01:01:43;;;;;;;17.77;6.90;;;;;;;6.13;nan;-23987.97;5034939;28;20187;-75
2022/12/08 01:04:14;;;;;;;14.83;7.47;;;;;;;6.06;nan;-23985.97;5035024;28;20199;-75
2022/12/08 01:06:40;;;;;;;18.07;6.77;;;;;;;5.98;nan;-23983.84;5034876;28;20224;-74
2022/12/08 01:09:06;;;;;;;11.47;6.67;;;;;;;6.23;nan;-23990.81;5033277;28;20258;-75
2022/12/08 01:11:32;;;;;;;11.80;5.90;;;;;;;6.09;nan;-23986.97;5035411;28;20171;-74
2022/12/08 01:13:58;;;;;;;10.80;6.73;;;;;;;6.10;nan;-23987.25;5034986;28;20175;-75
2022/12/08 01:16:29;;;;;;;14.03;5.33;;;;;;;4.41;nan;-23939.75;5035242;28;20183;-73
2022/12/08 01:18:56;;;;;;;9.13;5.47;;;;;;;5.79;nan;-23978.44;5034933;28;20176;-75
2022/12/08 01:21:21;;;;;;;27.93;7.50;;;;;;;5.85;nan;-23980.16;5035100;28;20276;-75
2022/12/08 01:23:47;;;;;;;12.90;6.53;;;;;;;6.08;nan;-23986.69;5043022;28;20267;-75
2022/12/08 01:26:15;;;;;;;8.80;5.63;;;;;;;5.87;nan;-23980.72;5048023;28;20211;-74
2022/12/08 01:28:40;;;;;;;10.37;5.70;;;;;;;6.06;nan;-23986.13;5035154;28;20184;-74
2022/12/08 01:31:12;;;;;;;12.77;5.90;;;;;;;6.08;nan;-23986.69;5034619;28;20171;-75
2022/12/08 01:33:37;;;;;;;16.23;6.77;;;;;;;5.86;nan;-23980.28;5034171;28;20529;-75
2022/12/08 01:36:04;;;;;;;10.40;4.33;;;;;;;5.96;nan;-23983.28;5034713;28;20178;-75
2022/12/08 01:38:30;;;;;;;14.13;5.70;;;;;;;5.82;nan;-23979.16;5032731;28;20183;-74
2022/12/08 01:40:55;;;;;;;10.43;5.63;;;;;;;6.06;nan;-23986.13;5033518;28;20662;-73
2022/12/08 01:43:21;;;;;;;13.43;5.50;;;;;;;6.06;nan;-23986.13;5035064;28;20176;-75
2022/12/08 01:45:46;;;;;;;9.37;5.20;;;;;;;5.77;nan;-23978.03;5032602;28;20261;-75
2022/12/08 01:48:20;;;;;;;7.70;5.07;;;;;;;5.87;nan;-23980.59;5034457;28;20362;-74
2022/12/08 01:50:47;;;;;;;12.30;5.57;;;;;;;5.86;nan;-23980.28;5034533;28;20180;-74
2022/12/08 01:53:24;;;;;;;10.40;4.70;;;;;;;5.95;nan;-23983.00;5034511;28;20187;-75
2022/12/08 01:55:54;;;;;;;9.80;5.37;;;;;;;6.21;nan;-23990.25;5034005;28;20167;-74
2022/12/08 01:58:42;;;;;;;11.60;5.50;;;;;;;6.37;nan;-23994.66;5033400;28;20254;-74
2022/12/08 02:01:09;;;;;;;8.03;5.50;;;;;;;6.30;nan;-23992.66;5034252;28;20175;-74
2022/12/08 02:03:44;;;;;;;12.83;5.03;;;;;;;6.29;nan;-23992.38;5034413;28;20577;-74
2022/12/08 02:06:10;;;;;;;9.43;5.07;;;;;;;5.82;nan;-23979.31;5034299;28;20214;-74
2022/12/08 02:08:39;;;;;;;12.47;5.30;;;;;;;5.74;nan;-23977.16;5032853;28;20189;-74
2022/12/08 02:11:07;;;;;;;12.90;5.57;;;;;;;6.13;nan;-23988.13;5034331;28;20199;-74
2022/12/08 02:13:33;;;;;;;9.87;5.00;;;;;;;5.91;nan;-23981.72;5034129;28;20266;-75
2022/12/08 02:16:10;;;;;;;13.47;5.43;;;;;;;5.78;nan;-23978.16;5034242;28;20270;-75
2022/12/08 02:18:47;;;;;;;8.93;5.73;;;;;;;6.24;nan;-23990.94;5034245;28;20586;-74
2022/12/08 02:21:24;;;;;;;7.50;4.80;;;;;;;6.11;nan;-23987.41;5033261;28;20210;-74
2022/12/08 02:24:33;;;;;;;7.57;5.50;;;;;;;6.17;nan;-23989.25;5034195;28;20183;-74
2022/12/08 02:27:22;;;;;;;11.57;5.10;;;;;;;6.17;nan;-23989.09;5011487;28;20222;-73
2022/12/08 02:30:06;;;;;;;7.97;5.80;;;;;;;6.20;nan;-23990.09;5011729;28;20173;-75
2022/12/08 02:32:56;;;;;;;6.37;4.20;;;;;;;6.24;nan;-23990.94;5028379;28;20183;-73
2022/12/08 02:35:58;;;;;;;7.63;4.63;;;;;;;6.14;nan;-23988.41;5033919;28;20214;-74
2022/12/08 02:38:38;;;;;;;5.37;4.03;;;;;;;6.21;nan;-23990.38;5033260;28;20498;-74
2022/12/08 02:41:43;;;;;;;11.37;4.83;;;;;;;6.19;nan;-23989.69;5033195;28;20192;-75
2022/12/08 02:44:21;;;;;;;8.37;4.83;;;;;;;5.86;nan;-23980.28;5021505;28;20544;-75
2022/12/08 02:46:53;;;;;;;8.80;3.87;;;;;;;5.88;nan;-23981.00;5033636;28;20195;-74
2022/12/08 02:49:18;;;;;;;6.57;4.30;;;;;;;5.89;nan;-23981.28;5033352;28;20246;-75
2022/12/08 02:51:44;;;;;;;7.60;4.93;;;;;;;6.06;nan;-23986.13;5033998;28;20255;-74
2022/12/08 02:54:10;;;;;;;7.23;4.57;;;;;;;6.25;nan;-23991.22;5033440;28;20258;-73
2022/12/08 02:56:54;;;;;;;7.43;4.13;;;;;;;6.19;nan;-23989.81;5031569;28;20536;-75
2022/12/08 02:59:25;;;;;;;8.60;4.47;;;;;;;6.12;nan;-23987.81;5033140;28;20643;-75
2022/12/08 03:02:15;;;;;;;15.63;4.80;;;;;;;6.04;nan;-23985.56;5032950;28;20218;-74
2022/12/08 03:05:04;;;;;;;12.53;4.87;;;;;;;5.62;nan;-23973.63;5033174;28;20202;-74
2022/12/08 03:08:05;;;;;;;9.60;4.23;;;;;;;5.96;nan;-23983.13;5033314;28;20262;-75
2022/12/08 03:10:47;;;;;;;9.53;4.10;;;;;;;5.82;nan;-23979.31;5018832;28;20187;-74
2022/12/08 03:13:17;;;;;;;7.77;4.67;;;;;;;6.06;nan;-23985.97;5032894;28;20262;-74
2022/12/08 03:15:46;;;;;;;10.70;5.20;;;;;;;5.55;nan;-23971.63;5033041;28;20215;-74
2022/12/08 03:18:15;;;;;;;11.23;5.13;;;;;;;5.30;nan;-23964.66;5032826;28;20647;-74
2022/12/08 03:20:43;;;;;;;11.47;5.07;;;;;;;5.33;nan;-23965.66;5032589;28;20175;-74
2022/12/08 03:23:12;;;;;;;7.37;5.13;;;;;;;5.13;nan;-23959.97;5032872;28;20650;-75
2022/12/08 03:25:45;;;;;;;11.27;4.40;;;;;;;5.40;nan;-23967.50;5032035;28;20213;-74
2022/12/08 03:28:11;;;;;;;9.00;5.63;;;;;;;5.47;nan;-23969.34;5032852;28;20186;-74
2022/12/08 03:30:40;;;;;;;4.90;3.80;;;;;;;5.48;nan;-23969.78;5031705;28;20545;-75
2022/12/08 03:33:14;;;;;;;8.93;4.17;;;;;;;5.51;nan;-23970.47;5032368;28;20171;-75
2022/12/08 03:35:41;;;;;;;7.37;4.50;;;;;;;5.32;nan;-23965.22;5032941;28;20254;-75
2022/12/08 03:38:10;;;;;;;6.73;4.47;;;;;;;5.41;nan;-23967.78;5032141;28;20187;-74
2022/12/08 03:40:36;;;;;;;37.13;5.60;;;;;;;5.62;nan;-23973.63;5032690;28;20170;-74
2022/12/08 03:43:02;;;;;;;9.50;5.20;;;;;;;5.53;nan;-23971.19;5031942;28;20596;-74
2022/12/08 03:45:28;;;;;;;15.40;5.30;;;;;;;5.82;nan;-23979.31;5032102;28;20237;-74
2022/12/08 03:47:53;;;;;;;6.13;4.33;;;;;;;5.71;nan;-23976.16;5032025;28;20179;-74
2022/12/08 03:50:18;;;;;;;11.40;5.80;;;;;;;5.97;nan;-23983.56;5032804;28;20237;-74
2022/12/08 03:52:44;;;;;;;9.80;5.23;;;;;;;5.82;nan;-23979.31;5032452;28;20182;-74
2022/12/08 03:55:09;;;;;;;7.67;4.07;;;;;;;5.90;nan;-23981.44;5030694;28;20214;-74
2022/12/08 03:57:35;;;;;;;11.63;4.17;;;;;;;5.44;nan;-23968.50;5031756;28;20654;-75
2022/12/08 04:00:01;;;;;;;10.90;4.50;;;;;;;5.80;nan;-23978.72;5032610;28;20244;-74
2022/12/08 04:02:26;;;;;;;17.90;5.20;;;;;;;5.73;nan;-23976.88;5031845;28;20637;-75
2022/12/08 04:04:51;;;;;;;7.60;4.67;;;;;;;5.00;nan;-23956.25;5031610;28;20199;-74
2022/12/08 04:07:17;;;;;;;9.23;4.33;;;;;;;5.42;nan;-23968.06;5030885;28;20624;-75
2022/12/08 04:09:43;;;;;;;9.40;5.30;;;;;;;5.59;nan;-23972.91;5031283;28;20176;-74
2022/12/08 04:12:09;;;;;;;10.90;4.83;;;;;;;5.57;nan;-23972.34;5031616;28;20675;-76
2022/12/08 04:14:35;;;;;;;6.00;4.40;;;;;;;5.61;nan;-23973.34;5031686;28;20270;-74
2022/12/08 04:17:00;;;;;;;12.90;4.47;;;;;;;5.25;nan;-23963.38;5031580;28;20175;-75
2022/12/08 04:19:25;;;;;;;6.70;4.73;;;;;;;5.33;nan;-23965.66;5031041;28;20634;-74
2022/12/08 04:21:51;;;;;;;15.33;5.33;;;;;;;5.62;nan;-23973.63;5033186;28;20252;-75
2022/12/08 04:24:16;;;;;;;12.00;4.13;;;;;;;5.82;nan;-23979.31;5033554;28;20203;-74
2022/12/08 04:26:42;;;;;;;8.90;4.53;;;;;;;5.82;nan;-23979.31;5034929;28;20188;-73
2022/12/08 04:29:07;;;;;;;10.03;5.73;;;;;;;5.51;nan;-23970.47;5034210;28;20197;-74
2022/12/08 04:31:32;;;;;;;11.23;5.07;;;;;;;5.36;nan;-23966.38;5034080;28;20179;-74
2022/12/08 04:33:58;;;;;;;7.53;3.50;;;;;;;5.45;nan;-23968.94;5034204;28;20182;-75
2022/12/08 04:36:23;;;;;;;8.97;4.67;;;;;;;5.79;nan;-23978.59;5033474;28;20186;-74
2022/12/08 04:38:49;;;;;;;8.53;4.57;;;;;;;5.89;nan;-23981.28;5033338;28;20186;-75
2022/12/08 04:41:14;;;;;;;14.30;5.60;;;;;;;6.05;nan;-23985.84;5035083;28;20277;-76
2022/12/08 04:43:40;;;;;;;9.87;5.37;;;;;;;5.93;nan;-23982.44;5033797;28;20244;-74
2022/12/08 04:46:09;;;;;;;13.43;5.27;;;;;;;6.07;nan;-23986.41;5034543;28;20717;-74
2022/12/08 04:48:39;;;;;;;7.53;4.30;;;;;;;5.91;nan;-23981.72;5034121;28;20553;-75
2022/12/08 04:51:05;;;;;;;9.93;4.80;;;;;;;5.61;nan;-23973.47;5033516;28;20264;-74
2022/12/08 04:53:30;;;;;;;6.20;4.47;;;;;;;5.74;nan;-23977.03;5034647;28;20225;-74
2022/12/08 04:55:56;;;;;;;10.57;4.50;;;;;;;5.73;nan;-23976.75;5033755;28;20187;-75
2022/12/08 04:58:21;;;;;;;9.80;5.57;;;;;;;6.07;nan;-23986.41;5033132;28;20262;-75
2022/12/08 05:00:48;;;;;;;8.43;4.27;;;;;;;6.04;nan;-23985.56;5034828;28;20189;-76
2022/12/08 05:03:14;;;;;;;8.37;5.17;;;;;;;6.14;nan;-23988.25;5035423;28;20703;-75
2022/12/08 05:05:40;;;;;;;9.93;5.30;;;;;;;6.22;nan;-23990.66;5038373;28;20225;-74
2022/12/08 05:08:07;;;;;;;9.37;5.00;;;;;;;6.19;nan;-23989.69;5045774;28;20187;-75
2022/12/08 05:10:32;;;;;;;9.00;4.40;;;;;;;5.85;nan;-23980.16;5037708;28;21977;-74
2022/12/08 05:12:58;;;;;;;9.87;5.80;;;;;;;6.18;nan;-23989.53;5034779;28;20586;-76
2022/12/08 05:15:24;;;;;;;8.43;4.90;;;;;;;6.22;nan;-23990.53;5032311;28;20205;-75
2022/12/08 05:17:49;;;;;;;8.70;4.80;;;;;;;5.84;nan;-23979.72;5037978;28;20646;-74
2022/12/08 05:20:15;;;;;;;10.07;5.17;;;;;;;6.30;nan;-23992.66;5029637;28;20659;-74
2022/12/08 05:22:40;;;;;;;7.07;4.70;;;;;;;6.43;nan;-23996.34;5034211;28;20252;-76
2022/12/08 05:25:06;;;;;;;10.83;5.07;;;;;;;6.12;nan;-23987.81;5031083;28;20678;-76
2022/12/08 05:27:31;;;;;;;12.50;4.67;;;;;;;6.11;nan;-23987.41;5031524;28;20207;-76
2022/12/08 05:29:57;;;;;;;10.87;4.77;;;;;;;5.90;nan;-23981.56;5029563;28;20215;-75
2022/12/08 05:33:00;;;;;;;9.03;5.07;;;;;;;6.22;nan;-23990.53;5032039;28;20556;-75
2022/12/08 05:35:26;;;;;;;14.17;5.43;;;;;;;6.22;nan;-23990.53;5032985;28;20262;-75
2022/12/08 05:37:52;;;;;;;7.43;4.60;;;;;;;6.29;nan;-23992.50;5033112;28;20179;-75
2022/12/08 05:40:18;;;;;;;10.53;4.40;;;;;;;5.44;nan;-23968.50;5034522;28;20224;-76
2022/12/08 05:42:43;;;;;;;9.90;4.70;;;;;;;6.05;nan;-23985.84;5032988;28;20183;-75
2022/12/08 05:45:09;;;;;;;9.07;4.93;;;;;;;6.32;nan;-23993.22;5034577;28;20241;-75
2022/12/08 05:47:34;;;;;;;9.50;4.57;;;;;;;5.98;nan;-23983.72;5034283;28;20195;-75
2022/12/08 05:50:00;;;;;;;8.87;4.57;;;;;;;6.29;nan;-23992.38;5034261;28;20182;-75
2022/12/08 05:52:25;;;;;;;9.70;4.77;;;;;;;5.98;nan;-23983.72;5034021;28;20187;-75
2022/12/08 05:54:52;;;;;;;18.03;5.23;;;;;;;6.40;nan;-23995.63;5034115;28;20638;-75
2022/12/08 05:57:17;;;;;;;9.47;5.53;;;;;;;6.29;nan;-23992.50;5034437;28;20290;-75
2022/12/08 05:59:43;;;;;;;10.70;5.07;;;;;;;6.35;nan;-23994.22;5033658;28;20210;-74
2022/12/08 06:02:08;;;;;;;10.20;4.87;;;;;;;6.46;nan;-23997.19;5033506;28;20608;-75
2022/12/08 06:04:34;;;;;;;7.87;4.53;;;;;;;6.19;nan;-23989.81;5034001;28;20214;-76
2022/12/08 06:06:59;;;;;;;12.20;5.90;;;;;;;6.52;nan;-23998.91;5034402;28;20623;-75
2022/12/08 06:09:25;;;;;;;12.53;5.53;;;;;;;6.62;nan;-24001.88;5032761;28;20673;-75
2022/12/08 06:11:50;;;;;;;9.10;4.77;;;;;;;6.63;nan;-24002.03;5033720;28;20180;-76
2022/12/08 06:14:16;;;;;;;12.97;4.67;;;;;;;6.42;nan;-23996.06;5032571;28;20172;-74
2022/12/08 06:16:41;;;;;;;12.00;5.27;;;;;;;6.68;nan;-24003.31;5031928;28;20186;-75
2022/12/08 06:19:07;;;;;;;9.53;4.63;;;;;;;6.82;nan;-24007.41;5033367;28;20211;-74
2022/12/08 06:21:33;;;;;;;11.00;4.30;;;;;;;6.86;nan;-24008.41;5033708;28;20262;-75
2022/12/08 06:23:58;;;;;;;7.40;4.73;;;;;;;6.60;nan;-24001.31;5034044;28;20247;-75
2022/12/08 06:26:24;;;;;;;7.77;4.70;;;;;;;6.91;nan;-24009.97;5032314;28;20302;-75
2022/12/08 06:28:49;;;;;;;11.93;4.93;;;;;;;6.80;nan;-24006.84;5033940;28;20262;-76
2022/12/08 06:31:24;;;;;;;11.27;5.27;;;;;;;7.01;nan;-24012.81;5033092;28;20687;-74
2022/12/08 06:33:50;;;;;;;8.10;5.00;;;;;;;6.99;nan;-24012.09;5033590;28;20171;-75
2022/12/08 06:36:18;;;;;;;8.47;4.30;;;;;;;6.98;nan;-24011.94;5033478;28;20259;-74
2022/12/08 06:38:44;;;;;;;11.27;5.27;;;;;;;6.78;nan;-24006.13;5033271;28;20172;-74
2022/12/08 06:41:10;;;;;;;11.63;4.63;;;;;;;6.99;nan;-24012.25;5033967;28;20172;-76
2022/12/08 06:43:36;;;;;;;16.27;6.00;;;;;;;7.00;nan;-24012.53;5031358;28;20266;-74
2022/12/08 06:46:04;;;;;;;10.10;5.77;;;;;;;7.08;nan;-24014.78;5033397;28;20409;-75
2022/12/08 06:48:30;;;;;;;8.03;5.00;;;;;;;7.08;nan;-24014.66;5032999;28;20634;-75
2022/12/08 06:50:55;;;;;;;11.13;6.20;;;;;;;7.10;nan;-24015.22;5031320;28;20191;-75
2022/12/08 06:53:20;;;;;;;10.27;5.93;;;;;;;6.80;nan;-24006.84;5031704;28;20572;-77
2022/12/08 06:55:51;;;;;;;10.27;5.63;;;;;;;7.06;nan;-24014.22;5032616;28;20270;-75
2022/12/08 06:58:17;;;;;;;11.93;6.53;;;;;;;6.20;nan;-23990.09;5032390;28;20614;-74
2022/12/08 07:00:43;;;;;;;14.57;6.17;;;;;;;6.79;nan;-24006.56;5032027;28;20190;-76
2022/12/08 07:03:09;;;;;;;7.30;5.23;;;;;;;7.21;nan;-24018.34;5032660;28;20215;-76
2022/12/08 07:05:36;;;;;;;15.93;5.97;;;;;;;6.98;nan;-24011.81;5032932;28;20199;-76
2022/12/08 07:08:02;;;;;;;12.10;5.63;;;;;;;7.10;nan;-24015.22;5032879;28;20179;-75
2022/12/08 07:10:27;;;;;;;9.90;5.00;;;;;;;6.94;nan;-24010.81;5032697;28;20700;-75
2022/12/08 07:12:53;;;;;;;15.60;6.13;;;;;;;7.19;nan;-24017.63;5032471;28;20198;-76
2022/12/08 07:15:19;;;;;;;10.83;6.30;;;;;;;6.95;nan;-24011.09;5032651;28;20180;-77
2022/12/08 07:17:44;;;;;;;9.33;5.87;;;;;;;7.04;nan;-24013.66;5032914;28;20654;-75
2022/12/08 07:20:10;;;;;;;8.73;5.30;;;;;;;7.47;nan;-24025.56;5032714;28;20171;-77
2022/12/08 07:22:35;;;;;;;12.37;5.70;;;;;;;7.33;nan;-24021.59;5032357;28;20228;-77
2022/12/08 07:25:01;;;;;;;9.30;4.53;;;;;;;7.63;nan;-24030.09;5032487;28;20199;-76
2022/12/08 07:27:26;;;;;;;10.40;5.03;;;;;;;7.50;nan;-24026.41;5032777;28;20561;-77
2022/12/08 07:29:51;;;;;;;10.27;4.53;;;;;;;7.28;nan;-24020.19;5031766;28;20175;-76
2022/12/08 07:32:17;;;;;;;8.57;4.83;;;;;;;7.69;nan;-24031.81;5031291;28;20183;-75
2022/12/08 07:34:42;;;;;;;11.13;6.10;;;;;;;7.63;nan;-24030.09;5030942;28;20691;-75
2022/12/08 07:37:08;;;;;;;11.10;5.17;;;;;;;7.66;nan;-24030.81;5030489;28;20176;-75
2022/12/08 07:39:33;;;;;;;10.57;5.77;;;;;;;7.55;nan;-24027.84;5030718;28;20194;-77
2022/12/08 07:41:59;;;;;;;7.50;4.57;;;;;;;7.46;nan;-24025.28;5032075;28;20251;-76
2022/12/08 07:44:24;;;;;;;12.87;5.23;;;;;;;7.08;nan;-24014.78;5030484;28;20199;-75
2022/12/08 07:46:49;;;;;;;9.57;5.60;;;;;;;7.10;nan;-24015.34;5031986;28;20654;-77
2022/12/08 07:49:15;;;;;;;8.00;4.83;;;;;;;7.04;nan;-24013.50;5031453;28;20170;-75
2022/12/08 07:51:40;;;;;;;5.47;4.33;;;;;;;7.48;nan;-24026.00;5031639;28;20179;-75
2022/12/08 07:54:11;;;;;;;8.80;5.23;;;;;;;7.71;nan;-24032.22;5029195;28;20664;-76
2022/12/08 07:56:36;;;;;;;13.17;5.57;;;;;;;7.77;nan;-24033.94;5030238;28;20159;-77
2022/12/08 07:59:03;;;;;;;10.90;5.73;;;;;;;7.81;nan;-24035.06;5031139;28;20185;-78
2022/12/08 08:01:31;;;;;;;11.53;5.97;;;;;;;7.53;nan;-24027.41;5030867;28;20187;-76
2022/12/08 08:04:03;;;;;;;11.57;4.87;;;;;;;7.83;nan;-24035.78;5031237;28;20242;-76
2022/12/08 08:06:28;;;;;;;10.97;6.47;;;;;;;7.74;nan;-24033.22;5031306;28;20253;-75
2022/12/08 08:08:54;;;;;;;13.00;5.87;;;;;;;7.45;nan;-24025.00;5030887;28;20639;-77
2022/12/08 08:11:20;;;;;;;7.50;5.00;;;;;;;7.75;nan;-24033.50;5030088;28;20249;-75
2022/12/08 08:13:45;;;;;;;9.43;5.33;;;;;;;7.56;nan;-24028.13;5030814;28;20288;-76
2022/12/08 08:16:12;;;;;;;11.77;5.43;;;;;;;7.77;nan;-24034.06;5031432;28;20184;-77
2022/12/08 08:18:38;;;;;;;9.77;5.60;;;;;;;7.85;nan;-24036.34;5030030;28;20171;-74
2022/12/08 08:21:04;;;;;;;10.07;5.37;;;;;;;7.84;nan;-24035.91;5032851;28;20262;-74
2022/12/08 08:23:30;;;;;;;8.37;5.50;;;;;;;7.79;nan;-24034.63;5029648;28;20286;-74
2022/12/08 08:26:00;;;;;;;10.30;5.47;;;;;;;7.72;nan;-24032.66;5033139;28;20297;-75
2022/12/08 08:28:27;;;;;;;11.27;6.40;;;;;;;7.83;nan;-24035.78;5033606;28;20186;-77
2022/12/08 08:30:53;;;;;;;11.93;6.20;;;;;;;7.48;nan;-24025.84;5029944;28;20191;-78
2022/12/08 08:33:18;;;;;;;12.53;6.03;;;;;;;7.55;nan;-24027.84;5029740;28;20187;-75
2022/12/08 08:35:44;;;;;;;12.83;5.73;;;;;;;8.25;nan;-24047.38;5030115;28;20286;-76
2022/12/08 08:38:09;;;;;;;20.67;6.10;;;;;;;8.25;nan;-24047.53;5031045;28;20454;-77
2022/12/08 08:40:35;;;;;;;13.33;6.87;;;;;;;8.32;nan;-24049.38;5030729;28;20267;-75
2022/12/08 08:43:01;;;;;;;11.00;5.30;;;;;;;8.47;nan;-24053.63;5029465;28;20171;-79
2022/12/08 08:45:27;;;;;;;11.87;6.30;;;;;;;8.62;nan;-24057.72;5038799;28;20202;-76
2022/12/08 08:47:52;;;;;;;16.08;5.72;;;;;;;8.36;nan;-24050.66;5047333;28;20170;-75
2022/12/08 08:50:17;;;;;;;14.57;6.03;;;;;;;8.45;nan;-24052.91;5032671;28;20175;-76
2022/12/08 08:52:43;;;;;;;9.70;4.60;;;;;;;8.07;nan;-24042.44;5030928;28;20234;-76
2022/12/08 08:55:08;;;;;;;9.43;5.80;;;;;;;8.37;nan;-24050.78;5029585;28;20333;-76
2022/12/08 08:57:34;;;;;;;9.63;5.68;;;;;;;8.47;nan;-24053.63;5031240;28;20247;-76
2022/12/08 08:59:59;;;;;;;12.40;6.32;;;;;;;8.40;nan;-24051.63;5030601;28;20179;-76
2022/12/08 09:02:25;;;;;;;11.63;5.70;;;;;;;8.95;nan;-24066.91;5030857;28;20230;-76
2022/12/08 09:04:50;;;;;;;10.82;5.90;;;;;;;8.42;nan;-24052.19;5030803;28;20191;-75
2022/12/08 09:07:16;;;;;;;14.25;8.02;;;;;;;8.68;nan;-24059.41;5036440;28;20182;-75
2022/12/08 09:09:41;;;;;;;15.38;7.20;;;;;;;8.22;nan;-24046.69;5035246;28;20193;-77
2022/12/08 09:12:07;;;;;;;19.33;7.00;;;;;;;8.73;nan;-24060.84;5036656;28;20558;-76
2022/12/08 09:14:33;;;;;;;10.93;6.13;;;;;;;8.90;nan;-24065.50;5037039;28;20587;-75
2022/12/08 09:16:58;;;;;;;16.33;6.13;;;;;;;8.80;nan;-24062.94;5034410;28;20183;-75
2022/12/08 09:19:24;;;;;;;12.25;5.93;;;;;;;8.77;nan;-24061.97;5037156;28;20205;-75
2022/12/08 09:21:50;;;;;;;15.38;7.22;;;;;;;9.25;nan;-24075.53;5037003;28;20241;-75
2022/12/08 09:24:15;;;;;;;13.68;6.05;;;;;;;9.32;nan;-24077.38;5034782;28;20175;-75
2022/12/08 09:26:42;;;;;;;18.13;7.25;;;;;;;9.09;nan;-24070.88;5032145;28;20179;-75
2022/12/08 09:29:09;;;;;;;15.13;6.45;;;;;;;9.50;nan;-24082.47;5033125;28;20180;-75
2022/12/08 09:31:35;;;;;;;17.02;7.25;;;;;;;9.18;nan;-24073.41;5034381;28;20267;-76
2022/12/08 09:34:00;;;;;;;14.60;7.15;;;;;;;9.07;nan;-24070.44;5034416;28;20274;-75
2022/12/08 09:36:26;;;;;;;11.25;6.47;;;;;;;8.75;nan;-24061.53;5034466;28;20186;-74
2022/12/08 09:38:53;;;;;;;18.25;7.07;;;;;;;9.18;nan;-24073.56;5032619;28;20176;-73
2022/12/08 09:41:18;;;;;;;13.40;6.15;;;;;;;9.32;nan;-24077.38;5032741;28;20266;-75
2022/12/08 09:43:44;;;;;;;19.23;7.88;;;;;;;9.36;nan;-24078.38;5032790;28;20171;-74
2022/12/08 09:46:13;;;;;;;14.52;7.47;;;;;;;9.36;nan;-24078.50;5032652;28;20202;-75
2022/12/08 09:48:42;;;;;;;9.02;5.22;;;;;;;9.44;nan;-24080.78;5032641;28;20171;-75
2022/12/08 09:51:08;;;;;;;14.85;6.63;;;;;;;9.32;nan;-24077.38;5032189;28;20176;-75
2022/12/08 09:53:36;;;;;;;19.10;6.15;;;;;;;9.45;nan;-24081.06;5038478;28;20206;-75
2022/12/08 09:56:28;;;;;;;12.57;6.03;;;;;;;9.24;nan;-24075.13;5032450;28;20214;-76
2022/12/08 09:59:04;;;;;;;13.25;6.57;;;;;;;9.20;nan;-24074.13;5027705;28;20646;-76
2022/12/08 10:01:33;;;;;;;12.07;7.55;;;;;;;9.25;nan;-24075.41;5033302;28;20221;-75
2022/12/08 10:03:59;;;;;;;11.27;5.70;;;;;;;8.51;nan;-24054.75;5032472;28;20283;-77
2022/12/08 10:06:57;;;;;;;14.52;6.93;;;;;;;8.80;nan;-24062.94;5032317;28;20225;-76
2022/12/08 10:09:40;;;;;;;13.38;6.00;;;;;;;9.19;nan;-24073.84;5030175;28;20310;-74
2022/12/08 10:12:41;;;;;;;11.23;5.97;;;;;;;9.15;nan;-24072.56;5032314;28;20163;-75
2022/12/08 10:15:12;;;;;;;15.38;6.53;;;;;;;9.19;nan;-24073.72;5026335;28;20639;-75
2022/12/08 10:17:45;;;;;;;13.77;6.55;;;;;;;9.10;nan;-24071.16;5032614;28;20643;-75
2022/12/08 10:20:17;;;;;;;21.02;8.75;;;;;;;9.28;nan;-24076.25;5033601;28;20745;-76
2022/12/08 10:22:46;;;;;;;20.33;7.03;;;;;;;9.11;nan;-24071.44;5033363;28;20306;-75
2022/12/08 10:25:17;;;;;;;15.15;7.25;;;;;;;9.09;nan;-24070.88;5031855;28;20231;-76
2022/12/08 10:27:42;;;;;;;13.23;6.90;;;;;;;9.29;nan;-24076.53;5032449;28;20638;-76
2022/12/08 10:30:13;;;;;;;16.48;6.43;;;;;;;9.10;nan;-24071.31;5032929;28;20210;-76
2022/12/08 10:32:43;;;;;;;15.75;6.63;;;;;;;9.29;nan;-24076.53;5032745;28;20164;-76
2022/12/08 10:35:12;;;;;;;18.27;7.13;;;;;;;8.91;nan;-24065.94;5030744;28;20171;-75
2022/12/08 10:37:37;;;;;;;15.80;6.13;;;;;;;5.25;nan;-23963.38;5032737;28;20179;-75
2022/12/08 10:40:12;;;;;;;15.68;6.95;;;;;;;8.81;nan;-24063.09;5032756;28;20190;-76
2022/12/08 10:42:58;;;;;;;14.95;6.72;;;;;;;9.16;nan;-24073.00;5032939;28;20225;-77
2022/12/08 10:45:26;;;;;;;14.98;6.30;;;;;;;8.91;nan;-24065.94;5029839;28;20199;-76
2022/12/08 10:48:17;;;;;;;14.77;7.78;;;;;;;8.71;nan;-24060.25;5032636;28;20262;-77
2022/12/08 10:50:51;;;;;;;13.30;6.53;;;;;;;8.55;nan;-24055.75;5033052;28;20202;-75
2022/12/08 10:53:28;;;;;;;21.35;7.47;;;;;;;8.78;nan;-24062.38;5030507;28;20238;-76
2022/12/08 10:56:00;;;;;;;12.65;6.00;;;;;;;8.96;nan;-24067.19;5032641;28;20194;-75
2022/12/08 10:58:32;;;;;;;16.42;7.05;;;;;;;8.95;nan;-24066.91;5032465;28;20175;-76
2022/12/08 11:01:18;;;;;;;16.55;6.05;;;;;;;9.24;nan;-24075.25;5031068;28;20191;-75
2022/12/08 11:03:56;;;;;;;18.20;8.40;;;;;;;8.30;nan;-24048.94;5032109;28;20222;-75
2022/12/08 11:06:28;;;;;;;12.40;7.07;;;;;;;8.25;nan;-24047.53;5032469;28;20211;-76
2022/12/08 11:09:06;;;;;;;15.83;6.77;;;;;;;8.43;nan;-24052.47;5032405;28;20183;-76
2022/12/08 11:11:43;;;;;;;12.20;6.82;;;;;;;8.56;nan;-24056.16;5033145;28;20170;-76
2022/12/08 11:14:33;;;;;;;18.30;6.13;;;;;;;8.76;nan;-24061.81;5032840;28;20163;-76
2022/12/08 11:17:08;;;;;;;15.38;6.07;;;;;;;8.88;nan;-24065.06;5020250;28;20187;-75
2022/12/08 11:19:38;;;;;;;14.70;5.75;;;;;;;8.71;nan;-24060.41;5037464;28;20269;-78
2022/12/08 11:22:24;;;;;;;11.87;6.53;;;;;;;9.06;nan;-24070.03;5031462;28;20194;-76
2022/12/08 11:25:19;;;;;;;12.77;6.80;;;;;;;9.10;nan;-24071.31;5032502;28;20249;-77
2022/12/08 11:27:47;;;;;;;16.45;6.75;;;;;;;8.77;nan;-24061.97;5030649;28;20294;-78
2022/12/08 11:30:16;;;;;;;14.70;6.30;;;;;;;8.79;nan;-24062.53;5032267;28;20229;-76
2022/12/08 11:32:45;;;;;;;13.82;6.65;;;;;;;9.02;nan;-24068.91;5032865;28;20172;-76
2022/12/08 11:35:30;;;;;;;17.27;7.45;;;;;;;8.95;nan;-24066.91;5032768;28;20175;-76
2022/12/08 11:38:03;;;;;;;16.63;7.43;;;;;;;8.68;nan;-24059.56;5030736;28;20177;-75
2022/12/08 11:40:34;;;;;;;12.80;7.13;;;;;;;8.81;nan;-24063.09;5032396;28;20182;-75
2022/12/08 11:43:13;;;;;;;17.52;6.72;;;;;;;7.76;nan;-24033.78;5031647;28;20241;-76
2022/12/08 11:45:40;;;;;;;16.08;6.78;;;;;;;8.79;nan;-24062.66;5029892;28;20670;-76
2022/12/08 11:48:15;;;;;;;14.73;6.68;;;;;;;8.84;nan;-24064.09;5028659;28;20182;-76
2022/12/08 11:50:55;;;;;;;12.83;5.90;;;;;;;8.55;nan;-24055.75;5031397;28;20182;-77
2022/12/08 11:53:29;;;;;;;15.15;6.57;;;;;;;9.03;nan;-24069.19;5030094;28;20175;-76
2022/12/08 11:55:59;;;;;;;14.52;5.38;;;;;;;8.67;nan;-24059.28;5031281;28;20257;-76
2022/12/08 11:58:35;;;;;;;13.18;6.63;;;;;;;8.93;nan;-24066.50;5031503;28;20255;-76